Time;durP1;ratioP1;P1;durP2;ratioP2;P2;SDS_P1;SDS_P2;PMS_P1;PMS_P2;Temp;Humidity;BMP_temperature;BMP_pressure;BME280_temperature;BME280_humidity;BME280_pressure;Samples;Min_cycle;Max_cycle;Signal;HPM_P1;HPM_P2
2023/04/26 00:02:07;;;;;;;9.07;2.13;;;3.80;99.90;;;;;;4965201;28;20050;-81
2023/04/26 00:04:36;;;;;;;14.57;1.85;;;3.80;99.90;;;;;;4958955;28;20410;-81
2023/04/26 00:07:02;;;;;;;6.78;1.67;;;4.70;99.90;;;;;;4955920;28;20292;-81
2023/04/26 00:09:28;;;;;;;6.53;1.30;;;6.50;99.90;;;;;;4943990;28;20046;-81
2023/04/26 00:11:54;;;;;;;8.57;2.17;;;;;;;;;;4941815;29;20062;-81
2023/04/26 00:14:20;;;;;;;13.10;2.15;;;3.90;99.90;;;;;;4959217;28;20475;-78
2023/04/26 00:16:45;;;;;;;7.45;1.77;;;5.30;99.90;;;;;;4962759;28;20054;-80
2023/04/26 00:19:12;;;;;;;10.73;2.13;;;6.60;99.90;;;;;;4960819;28;20146;-82
2023/04/26 00:21:39;;;;;;;7.35;1.83;;;6.70;99.90;;;;;;4961234;28;20054;-81
2023/04/26 00:24:05;;;;;;;9.65;2.28;;;3.90;99.90;;;;;;4961795;28;20046;-80
2023/04/26 00:26:33;;;;;;;5.00;1.90;;;3.90;99.90;;;;;;4926974;28;20082;-80
2023/04/26 00:28:58;;;;;;;11.18;1.73;;;5.80;99.90;;;;;;4941247;29;20054;-80
2023/04/26 00:31:24;;;;;;;7.13;1.73;;;3.60;99.90;;;;;;4958588;28;20051;-81
2023/04/26 00:33:50;;;;;;;9.40;1.67;;;3.80;99.90;;;;;;4962290;28;20047;-81
2023/04/26 00:36:18;;;;;;;6.68;1.73;;;3.50;99.90;;;;;;4961351;28;20057;-81
2023/04/26 00:38:44;;;;;;;8.75;1.88;;;3.60;99.90;;;;;;4950359;28;20063;-81
2023/04/26 00:41:11;;;;;;;4.60;1.35;;;;;;;;;;4941313;29;20043;-81
2023/04/26 00:43:37;;;;;;;10.73;2.15;;;5.30;99.90;;;;;;4960741;28;20368;-80
2023/04/26 00:46:03;;;;;;;12.10;2.17;;;;;;;;;;4929153;28;20059;-81
2023/04/26 00:48:29;;;;;;;7.18;1.52;;;3.50;99.90;;;;;;4975221;28;20520;-81
2023/04/26 00:50:55;;;;;;;9.32;2.35;;;1.80;99.90;;;;;;4941876;29;20414;-80
2023/04/26 00:53:22;;;;;;;7.93;1.98;;;3.40;99.90;;;;;;4959369;28;20059;-80
2023/04/26 00:55:50;;;;;;;9.60;1.83;;;4.80;99.90;;;;;;4976866;28;20035;-81
2023/04/26 00:58:17;;;;;;;12.07;1.73;;;3.40;99.90;;;;;;4961167;28;20063;-81
2023/04/26 01:00:43;;;;;;;5.43;1.52;;;3.40;99.90;;;;;;4960937;28;20043;-80
2023/04/26 01:03:08;;;;;;;9.65;2.05;;;3.20;99.90;;;;;;4944196;28;20051;-81
2023/04/26 01:05:35;;;;;;;11.40;1.85;;;5.30;99.90;;;;;;4928633;28;20073;-81
2023/04/26 01:08:03;;;;;;;10.50;2.00;;;5.50;99.90;;;;;;4945442;28;20047;-81
2023/04/26 01:10:31;;;;;;;7.22;1.60;;;3.30;99.90;;;;;;4959160;28;20195;-80
2023/04/26 01:12:57;;;;;;;7.20;2.28;;;3.30;99.90;;;;;;4963868;28;20051;-80
2023/04/26 01:15:24;;;;;;;4.20;1.33;;;3.10;99.90;;;;;;4953458;28;20129;-80
2023/04/26 01:17:51;;;;;;;6.03;2.10;;;3.10;99.90;;;;;;4953330;28;20046;-81
2023/04/26 01:20:16;;;;;;;5.25;1.45;;;3.20;99.90;;;;;;4938129;29;20069;-81
2023/04/26 01:22:42;;;;;;;12.80;2.35;;;3.20;99.90;;;;;;4956660;28;20614;-81
2023/04/26 01:25:11;;;;;;;10.35;2.20;;;5.80;99.90;;;;;;4957431;28;20380;-80
2023/04/26 01:27:37;;;;;;;9.98;1.88;;;;;;;;;;4943204;28;20062;-79
2023/04/26 01:30:03;;;;;;;11.00;2.00;;;3.20;99.90;;;;;;4960137;28;20054;-81
2023/04/26 01:32:29;;;;;;;6.03;1.80;;;3.30;99.90;;;;;;4961061;28;20414;-80
2023/04/26 01:34:55;;;;;;;8.18;1.88;;;3.30;99.90;;;;;;4957967;28;20074;-79
2023/04/26 01:37:21;;;;;;;9.90;2.28;;;3.30;99.90;;;;;;4964838;28;20582;-79
2023/04/26 01:39:46;;;;;;;5.97;1.83;;;3.20;99.90;;;;;;4962380;28;20035;-81
2023/04/26 01:42:13;;;;;;;8.82;1.85;;;3.40;99.90;;;;;;4948390;28;20098;-80
2023/04/26 01:44:39;;;;;;;5.05;1.48;;;3.40;99.90;;;;;;4961302;28;20061;-80
2023/04/26 01:47:05;;;;;;;7.13;1.27;;;3.40;99.90;;;;;;4950273;28;20051;-80
2023/04/26 01:49:31;;;;;;;8.00;1.88;;;3.00;99.90;;;;;;4963047;28;20060;-79
2023/04/26 01:51:57;;;;;;;3.45;1.40;;;3.50;99.90;;;;;;4959999;28;20055;-81
2023/04/26 01:54:23;;;;;;;4.85;1.50;;;4.70;99.90;;;;;;4968688;28;20430;-81
2023/04/26 01:56:49;;;;;;;11.40;3.13;;;3.40;99.90;;;;;;4948729;28;20134;-81
2023/04/26 01:59:14;;;;;;;7.28;1.75;;;4.00;99.90;;;;;;4963517;28;20057;-81
2023/04/26 02:01:43;;;;;;;6.72;1.45;;;4.10;99.90;;;;;;4945209;28;20173;-80
2023/04/26 02:04:09;;;;;;;6.90;1.75;;;5.50;99.90;;;;;;4961028;28;20389;-81
2023/04/26 02:06:36;;;;;;;6.78;1.48;;;3.40;99.90;;;;;;4967920;28;20047;-81
2023/04/26 02:09:05;;;;;;;8.68;1.42;;;3.40;99.90;;;;;;4965415;28;20480;-80
2023/04/26 02:11:31;;;;;;;8.20;2.10;;;3.50;99.90;;;;;;4962173;28;20482;-81
2023/04/26 02:13:59;;;;;;;7.03;1.20;;;5.00;99.90;;;;;;4960683;28;20057;-81
2023/04/26 02:16:25;;;;;;;5.00;1.52;;;3.40;99.90;;;;;;4944059;28;20051;-82
2023/04/26 02:18:52;;;;;;;9.93;1.85;;;3.40;99.90;;;;;;4947750;28;20129;-81
2023/04/26 02:21:18;;;;;;;4.13;1.35;;;3.40;99.90;;;;;;4947105;28;20046;-81
2023/04/26 02:23:44;;;;;;;4.32;1.92;;;3.50;99.90;;;;;;4944858;28;20047;-81
2023/04/26 02:26:11;;;;;;;4.30;1.67;;;3.40;99.90;;;;;;4960844;28;20062;-81
2023/04/26 02:28:37;;;;;;;8.50;2.15;;;3.40;99.90;;;;;;4969432;28;20524;-81
2023/04/26 02:31:02;;;;;;;4.72;1.35;;;5.90;99.90;;;;;;4959984;28;20070;-81
2023/04/26 02:33:33;;;;;;;10.65;2.63;;;3.10;99.90;;;;;;4968877;28;20141;-81
2023/04/26 02:36:03;;;;;;;7.53;1.45;;;5.40;99.90;;;;;;4944135;29;20138;-81
2023/04/26 02:38:28;;;;;;;6.85;1.60;;;3.50;99.90;;;;;;4968083;28;20104;-79
2023/04/26 02:40:59;;;;;;;8.52;2.15;;;3.40;99.90;;;;;;4960916;28;20047;-81
2023/04/26 02:43:25;;;;;;;2.30;0.90;;;3.50;99.90;;;;;;4943491;29;20047;-81
2023/04/26 02:45:51;;;;;;;6.38;1.40;;;4.70;99.90;;;;;;4983890;28;20047;-81
2023/04/26 02:48:17;;;;;;;7.82;1.45;;;2.80;99.90;;;;;;4943505;29;20051;-80
2023/04/26 02:50:42;;;;;;;6.85;1.30;;;3.00;99.90;;;;;;4967223;28;20053;-80
2023/04/26 02:53:08;;;;;;;3.47;2.42;;;;;;;;;;4965209;28;20051;-80
2023/04/26 02:55:36;;;;;;;7.03;1.52;;;3.50;99.90;;;;;;4949720;28;20125;-79
2023/04/26 02:58:05;;;;;;;3.35;1.20;;;5.60;99.90;;;;;;4964912;28;20047;-80
2023/04/26 03:00:33;;;;;;;4.18;1.48;;;;;;;;;;4968888;28;20521;-80
2023/04/26 03:02:58;;;;;;;10.18;1.40;;;3.50;99.90;;;;;;4964459;28;20047;-81
2023/04/26 03:05:24;;;;;;;4.43;1.13;;;5.50;99.90;;;;;;4962747;28;20057;-81
2023/04/26 03:07:50;;;;;;;4.95;1.48;;;6.20;99.90;;;;;;4943532;28;20502;-80
2023/04/26 03:10:16;;;;;;;4.13;1.23;;;3.40;99.90;;;;;;4949978;28;20055;-79
2023/04/26 03:12:41;;;;;;;5.22;1.38;;;3.50;99.90;;;;;;4962508;28;20055;-80
2023/04/26 03:15:07;;;;;;;3.17;1.98;;;4.50;99.90;;;;;;4963100;28;20105;-80
2023/04/26 03:17:33;;;;;;;6.88;1.30;;;3.50;99.90;;;;;;4953651;28;20063;-80
2023/04/26 03:19:58;;;;;;;1.70;0.80;;;3.80;99.90;;;;;;4959193;28;20048;-80
2023/04/26 03:22:24;;;;;;;6.90;1.60;;;3.40;99.90;;;;;;4959941;28;20051;-79
2023/04/26 03:24:50;;;;;;;2.38;0.70;;;5.70;99.90;;;;;;4962407;28;20069;-80
2023/04/26 03:27:16;;;;;;;6.45;0.88;;;4.50;99.90;;;;;;4963815;28;20057;-80
2023/04/26 03:29:41;;;;;;;6.65;1.30;;;3.70;99.90;;;;;;4961539;28;20091;-80
2023/04/26 03:32:07;;;;;;;7.40;1.20;;;3.70;99.90;;;;;;4960252;28;20312;-80
2023/04/26 03:34:33;;;;;;;6.28;1.42;;;3.50;99.90;;;;;;4959698;28;20070;-79
2023/04/26 03:36:58;;;;;;;4.40;0.90;;;3.60;99.90;;;;;;4969763;28;20502;-80
2023/04/26 03:39:24;;;;;;;10.00;1.50;;;6.40;99.90;;;;;;4954085;28;20043;-79
2023/04/26 03:41:49;;;;;;;5.05;1.00;;;3.80;99.90;;;;;;4961190;28;20051;-79
2023/04/26 03:44:15;;;;;;;5.30;0.93;;;3.60;99.90;;;;;;4942514;29;20055;-80
2023/04/26 03:46:41;;;;;;;3.30;1.17;;;4.90;99.90;;;;;;4961220;28;20055;-82
2023/04/26 03:49:08;;;;;;;2.17;1.02;;;1.40;99.90;;;;;;4961755;28;20061;-80
2023/04/26 03:51:34;;;;;;;4.80;1.80;;;3.70;99.90;;;;;;4960870;28;20061;-82
2023/04/26 03:54:00;;;;;;;8.93;2.03;;;3.70;99.90;;;;;;4958580;28;20403;-82
2023/04/26 03:56:25;;;;;;;7.25;1.58;;;6.40;99.90;;;;;;4942511;29;20048;-82
2023/04/26 03:58:51;;;;;;;7.90;1.63;;;3.50;99.90;;;;;;4961045;28;20137;-82
2023/04/26 04:01:17;;;;;;;5.30;1.42;;;3.70;99.90;;;;;;4969413;28;20494;-82
2023/04/26 04:03:42;;;;;;;5.05;2.28;;;6.40;99.90;;;;;;4935757;28;20046;-82
2023/04/26 04:06:08;;;;;;;12.82;4.78;;;3.20;99.90;;;;;;4953203;28;20073;-82
2023/04/26 04:08:34;;;;;;;3.97;1.92;;;3.40;99.90;;;;;;4934595;28;20565;-81
2023/04/26 04:11:00;;;;;;;5.38;1.88;;;4.00;99.90;;;;;;4962562;28;20073;-82
2023/04/26 04:13:26;;;;;;;2.95;1.30;;;5.90;99.90;;;;;;4970574;28;20106;-82
2023/04/26 04:15:52;;;;;;;8.60;1.63;;;3.70;99.90;;;;;;4945467;28;20058;-81
2023/04/26 04:18:17;;;;;;;2.67;1.33;;;6.00;99.90;;;;;;4977104;28;20664;-80
2023/04/26 04:20:43;;;;;;;3.28;1.13;;;6.30;99.90;;;;;;4951769;28;20054;-80
2023/04/26 04:23:09;;;;;;;2.92;1.88;;;3.70;99.90;;;;;;4959635;28;20055;-82
2023/04/26 04:25:35;;;;;;;8.05;1.85;;;3.70;99.90;;;;;;4941624;28;20047;-81
2023/04/26 04:28:02;;;;;;;4.60;1.10;;;3.70;99.90;;;;;;4953005;28;20069;-80
2023/04/26 04:30:48;;;;;;;5.07;1.23;;;3.70;99.90;;;;;;4973587;28;20051;-82
2023/04/26 04:33:16;;;;;;;9.00;1.38;;;4.30;99.90;;;;;;4941237;28;20135;-80
2023/04/26 04:35:42;;;;;;;5.15;1.00;;;6.30;99.90;;;;;;4963783;28;20051;-80
2023/04/26 04:38:07;;;;;;;6.53;1.60;;;3.50;99.90;;;;;;4977534;28;20540;-82
2023/04/26 04:40:33;;;;;;;4.90;1.80;;;3.60;99.90;;;;;;4961373;28;20085;-81
2023/04/26 04:43:02;;;;;;;4.35;2.20;;;5.20;99.90;;;;;;4957957;28;20047;-81
2023/04/26 04:45:27;;;;;;;7.65;4.20;;;6.40;99.90;;;;;;4973940;28;20079;-82
2023/04/26 04:47:53;;;;;;;6.22;1.75;;;3.20;99.90;;;;;;4944184;28;20090;-82
2023/04/26 04:50:20;;;;;;;6.82;2.55;;;4.70;99.90;;;;;;4977418;28;20054;-79
2023/04/26 04:52:46;;;;;;;5.15;1.40;;;3.70;99.90;;;;;;4943626;28;20063;-81
2023/04/26 04:55:11;;;;;;;3.22;1.42;;;3.60;99.90;;;;;;4958540;28;20130;-82
2023/04/26 04:57:37;;;;;;;5.03;1.00;;;3.60;99.90;;;;;;4957908;28;20138;-82
2023/04/26 05:00:11;;;;;;;6.40;1.50;;;3.70;99.90;;;;;;4968995;28;20054;-80
2023/04/26 05:02:37;;;;;;;4.90;1.40;;;3.80;99.90;;;;;;4961716;28;20059;-81
2023/04/26 05:05:03;;;;;;;3.63;1.30;;;3.80;99.90;;;;;;4957398;28;20066;-82
2023/04/26 05:07:31;;;;;;;7.38;1.30;;;3.80;99.90;;;;;;4958533;28;20279;-82
2023/04/26 05:09:57;;;;;;;3.53;1.33;;;3.70;99.90;;;;;;4944252;28;20078;-82
2023/04/26 05:12:22;;;;;;;3.83;1.98;;;4.70;99.90;;;;;;4969215;28;20462;-81
2023/04/26 05:14:48;;;;;;;9.55;2.80;;;3.70;99.90;;;;;;4952642;28;20065;-81
2023/04/26 05:17:13;;;;;;;6.63;1.40;;;5.30;99.90;;;;;;4945833;29;20411;-82
2023/04/26 05:19:39;;;;;;;6.20;1.58;;;3.30;99.90;;;;;;4961926;28;20054;-81
2023/04/26 05:22:05;;;;;;;3.53;0.80;;;3.60;99.90;;;;;;4947979;28;20051;-82
2023/04/26 05:24:31;;;;;;;5.28;1.00;;;3.70;99.90;;;;;;4966585;28;20536;-81
2023/04/26 05:27:00;;;;;;;7.05;1.00;;;3.60;99.90;;;;;;4969994;28;20057;-81
2023/04/26 05:29:29;;;;;;;5.95;1.05;;;4.10;99.90;;;;;;4968030;28;20043;-81
2023/04/26 05:31:55;;;;;;;4.95;1.38;;;6.90;99.90;;;;;;4963942;28;20046;-80
2023/04/26 05:34:23;;;;;;;4.07;1.42;;;4.00;99.90;;;;;;4948523;28;20061;-82
2023/04/26 05:36:50;;;;;;;6.40;1.92;;;1.80;99.90;;;;;;4962501;28;20051;-81
2023/04/26 05:39:16;;;;;;;4.63;2.10;;;3.80;99.90;;;;;;4945022;29;20069;-82
2023/04/26 05:41:42;;;;;;;6.30;1.25;;;6.90;99.90;;;;;;4960932;28;20055;-81
2023/04/26 05:44:08;;;;;;;5.25;1.20;;;4.00;99.90;;;;;;4955006;28;20214;-82
2023/04/26 05:46:33;;;;;;;4.45;1.80;;;4.30;99.90;;;;;;4964153;28;20062;-81
2023/04/26 05:48:59;;;;;;;4.43;1.05;;;7.10;99.90;;;;;;4962837;28;20051;-81
2023/04/26 05:51:25;;;;;;;5.47;1.50;;;4.10;99.90;;;;;;4944613;29;20057;-82
2023/04/26 05:53:50;;;;;;;4.68;1.02;;;5.10;99.90;;;;;;4962200;28;20051;-82
2023/04/26 05:56:16;;;;;;;5.65;1.10;;;4.30;99.90;;;;;;4949178;28;20098;-82
2023/04/26 05:58:46;;;;;;;6.63;1.50;;;4.30;99.90;;;;;;4951434;28;20059;-82
2023/04/26 06:01:13;;;;;;;2.45;1.33;;;4.40;99.90;;;;;;4971054;28;20539;-82
2023/04/26 06:03:39;;;;;;;2.80;1.08;;;4.10;99.90;;;;;;4948441;28;20438;-82
2023/04/26 06:06:05;;;;;;;4.10;1.60;;;4.40;99.90;;;;;;4967283;28;20051;-81
2023/04/26 06:08:32;;;;;;;5.05;1.38;;;4.40;99.90;;;;;;4958950;28;20051;-82
2023/04/26 06:10:58;;;;;;;7.68;1.70;;;4.50;99.90;;;;;;4966591;28;20050;-80
2023/04/26 06:13:23;;;;;;;4.65;1.52;;;6.50;99.90;;;;;;4967221;28;20058;-80
2023/04/26 06:15:49;;;;;;;7.60;1.95;;;6.80;99.90;;;;;;4963323;28;20039;-79
2023/04/26 06:18:16;;;;;;;6.35;1.63;;;;;;;;;;4966403;28;20063;-80
2023/04/26 06:20:42;;;;;;;4.63;1.60;;;4.50;99.90;;;;;;4946478;29;20051;-82
2023/04/26 06:23:08;;;;;;;7.80;2.00;;;4.70;99.90;;;;;;4978499;28;20047;-81
2023/04/26 06:25:35;;;;;;;7.70;1.85;;;4.50;99.90;;;;;;4945015;29;20077;-80
2023/04/26 06:28:02;;;;;;;8.10;1.85;;;4.60;99.90;;;;;;4961649;28;20578;-80
2023/04/26 06:30:28;;;;;;;6.40;1.67;;;4.60;99.90;;;;;;4952993;28;20078;-80
2023/04/26 06:32:54;;;;;;;4.00;2.00;;;5.70;99.90;;;;;;4957529;28;20487;-81
2023/04/26 06:35:22;;;;;;;5.97;1.50;;;5.80;99.90;;;;;;4947843;28;20054;-79
2023/04/26 06:37:47;;;;;;;6.70;2.20;;;7.30;99.90;;;;;;4964547;28;20423;-82
2023/04/26 06:40:14;;;;;;;5.55;2.33;;;4.70;99.90;;;;;;4943711;29;20102;-82
2023/04/26 06:42:40;;;;;;;8.50;2.42;;;4.70;99.90;;;;;;4959979;28;20522;-80
2023/04/26 06:45:06;;;;;;;3.58;2.08;;;4.80;99.90;;;;;;4962562;28;20078;-80
2023/04/26 06:47:32;;;;;;;3.88;1.80;;;5.00;99.90;;;;;;4962523;28;20050;-80
2023/04/26 06:49:58;;;;;;;5.10;2.38;;;5.90;99.90;;;;;;4959573;28;20106;-81
2023/04/26 06:52:23;;;;;;;11.88;1.95;;;4.70;99.90;;;;;;4960742;28;20054;-81
2023/04/26 06:54:49;;;;;;;7.40;1.77;;;4.90;99.90;;;;;;4959140;28;20047;-82
2023/04/26 06:57:15;;;;;;;7.68;2.65;;;5.00;99.90;;;;;;4951264;28;20086;-82
2023/04/26 06:59:42;;;;;;;7.35;1.90;;;5.00;99.90;;;;;;4955092;28;20054;-81
2023/04/26 07:02:08;;;;;;;6.90;2.20;;;5.70;99.90;;;;;;4966971;28;20062;-80
2023/04/26 07:04:35;;;;;;;8.77;2.22;;;7.90;99.90;;;;;;4958456;28;20073;-81
2023/04/26 07:07:00;;;;;;;4.43;1.92;;;5.10;99.90;;;;;;4928723;28;20487;-82
2023/04/26 07:09:26;;;;;;;8.77;1.83;;;5.50;99.90;;;;;;4962326;28;20070;-81
2023/04/26 07:11:52;;;;;;;3.65;1.63;;;6.50;99.90;;;;;;4945951;28;20405;-81
2023/04/26 07:14:17;;;;;;;4.15;2.25;;;7.00;99.90;;;;;;4927385;29;20058;-79
2023/04/26 07:16:43;;;;;;;3.67;1.42;;;5.40;99.90;;;;;;4960449;28;20145;-81
2023/04/26 07:19:09;;;;;;;7.70;1.80;;;8.60;99.90;;;;;;4946895;28;20391;-81
2023/04/26 07:21:37;;;;;;;8.85;1.50;;;6.00;99.90;;;;;;4963002;28;20047;-80
2023/04/26 07:24:02;;;;;;;8.88;1.50;;;7.80;99.90;;;;;;4953668;28;20050;-81
2023/04/26 07:26:28;;;;;;;4.28;1.63;;;5.80;99.90;;;;;;4943579;29;20130;-80
2023/04/26 07:28:54;;;;;;;9.63;1.98;;;5.80;99.90;;;;;;4962035;28;20194;-81
2023/04/26 07:31:20;;;;;;;6.05;1.30;;;5.60;99.90;;;;;;4963529;28;20495;-80
2023/04/26 07:33:46;;;;;;;9.40;1.58;;;5.90;99.90;;;;;;4962667;28;20391;-80
2023/04/26 07:36:11;;;;;;;6.43;1.92;;;5.90;99.90;;;;;;4958270;28;20047;-81
2023/04/26 07:38:37;;;;;;;4.82;2.05;;;9.00;99.90;;;;;;4942234;28;20054;-81
2023/04/26 07:41:03;;;;;;;10.32;1.60;;;6.20;99.90;;;;;;4960487;28;20357;-82
2023/04/26 07:43:29;;;;;;;5.85;1.30;;;6.30;99.90;;;;;;4929653;28;20043;-81
2023/04/26 07:46:00;;;;;;;7.88;1.92;;;9.10;99.90;;;;;;4953222;28;20431;-79
2023/04/26 07:48:27;;;;;;;5.45;1.27;;;7.90;99.90;;;;;;4942382;29;20051;-80
2023/04/26 07:50:52;;;;;;;3.40;0.77;;;7.90;99.90;;;;;;4960265;28;20071;-80
2023/04/26 07:53:18;;;;;;;9.55;1.67;;;6.70;99.90;;;;;;4955308;28;20051;-81
2023/04/26 07:55:45;;;;;;;9.55;1.30;;;7.60;99.90;;;;;;4932345;28;20051;-81
2023/04/26 07:58:13;;;;;;;7.78;1.55;;;6.20;99.90;;;;;;4958452;28;20499;-82
2023/04/26 08:00:42;;;;;;;7.38;1.35;;;6.80;99.90;;;;;;4959606;28;20043;-83
2023/04/26 08:03:11;;;;;;;5.70;1.20;;;6.80;99.90;;;;;;4945381;28;20526;-80
2023/04/26 08:05:36;;;;;;;6.90;1.52;;;6.90;99.90;;;;;;4941338;29;20050;-82
2023/04/26 08:08:02;;;;;;;7.35;1.40;;;7.90;99.90;;;;;;4942950;28;20138;-82
2023/04/26 08:10:28;;;;;;;9.63;2.05;;;7.00;99.90;;;;;;4957872;28;20062;-83
2023/04/26 08:12:56;;;;;;;6.25;1.95;;;6.80;99.90;;;;;;4942557;28;20094;-82
2023/04/26 08:15:22;;;;;;;7.47;1.50;;;7.70;99.90;;;;;;4950921;28;20129;-83
2023/04/26 08:17:47;;;;;;;5.70;1.50;;;8.30;99.90;;;;;;4967335;28;20122;-80
2023/04/26 08:20:17;;;;;;;7.22;1.50;;;8.50;99.90;;;;;;4963221;28;20059;-81
2023/04/26 08:22:42;;;;;;;7.30;1.67;;;7.00;99.90;;;;;;4926361;28;20645;-81
2023/04/26 08:25:09;;;;;;;9.93;1.05;;;7.00;99.90;;;;;;4941584;28;20043;-80
2023/04/26 08:27:38;;;;;;;8.00;1.52;;;6.90;99.90;;;;;;4946689;28;20126;-81
2023/04/26 08:30:05;;;;;;;7.15;1.20;;;7.10;99.90;;;;;;4949743;28;20061;-80
2023/04/26 08:32:32;;;;;;;6.20;1.02;;;7.30;99.90;;;;;;4937516;28;20051;-81
2023/04/26 08:34:59;;;;;;;7.35;1.27;;;7.20;99.90;;;;;;4947046;28;20394;-81
2023/04/26 08:37:25;;;;;;;6.28;1.55;;;9.00;99.90;;;;;;4940832;29;20503;-81
2023/04/26 08:39:51;;;;;;;5.32;1.17;;;5.20;99.90;;;;;;4958727;28;20043;-81
2023/04/26 08:42:23;;;;;;;4.40;1.10;;;7.20;99.90;;;;;;4932893;28;20083;-81
2023/04/26 08:44:52;;;;;;;10.32;1.83;;;7.10;99.90;;;;;;4955187;28;20465;-83
2023/04/26 08:47:43;;;;;;;5.45;1.30;;;8.70;99.90;;;;;;4249854;28;10000736;-82
2023/04/26 08:50:13;;;;;;;9.63;1.55;;;6.70;99.90;;;;;;4941470;28;20062;-79
2023/04/26 08:52:40;;;;;;;7.10;1.90;;;9.30;99.90;;;;;;4954172;28;20162;-82
2023/04/26 08:55:09;;;;;;;11.35;1.85;;;;;;;;;;4942306;28;20058;-80
2023/04/26 08:57:35;;;;;;;8.63;1.27;;;6.30;99.90;;;;;;4933497;28;20063;-79
2023/04/26 09:00:11;;;;;;;7.43;1.60;;;6.30;99.90;;;;;;4942480;28;20051;-81
2023/04/26 09:02:38;;;;;;;6.68;1.95;;;6.30;99.90;;;;;;4959705;28;20059;-81
2023/04/26 09:05:06;;;;;;;7.93;1.50;;;8.40;99.90;;;;;;4963611;28;20059;-81
2023/04/26 09:07:38;;;;;;;10.02;1.70;;;6.50;99.90;;;;;;4952315;28;20058;-82
2023/04/26 09:10:05;;;;;;;7.80;1.30;;;7.50;99.90;;;;;;4940938;28;20066;-82
2023/04/26 09:12:31;;;;;;;6.78;1.40;;;6.70;99.90;;;;;;4937288;28;20054;-81
2023/04/26 09:14:56;;;;;;;16.48;1.73;;;6.60;99.90;;;;;;4943590;28;20050;-81
2023/04/26 09:17:40;;;;;;;8.75;1.33;;;9.40;99.90;;;;;;4944074;28;20418;-81
2023/04/26 09:20:23;;;;;;;5.25;1.45;;;6.90;99.90;;;;;;4960142;28;20046;-81
2023/04/26 09:23:06;;;;;;;10.88;2.20;;;6.90;99.90;;;;;;4941152;28;20134;-81
2023/04/26 09:25:33;;;;;;;8.35;1.52;;;7.00;99.90;;;;;;4960960;28;20402;-80
2023/04/26 09:28:00;;;;;;;11.95;2.05;;;6.60;99.90;;;;;;4954880;28;20039;-80
2023/04/26 09:30:28;;;;;;;10.32;1.73;;;8.90;99.90;;;;;;4970668;28;20083;-81
2023/04/26 09:33:01;;;;;;;5.68;1.38;;;8.40;99.90;;;;;;4948368;28;20065;-81
2023/04/26 09:35:35;;;;;;;9.18;2.03;;;7.10;99.90;;;;;;4955289;28;20102;-80
2023/04/26 09:38:03;;;;;;;10.90;2.58;;;9.50;99.90;;;;;;4956966;28;20051;-82
2023/04/26 09:40:50;;;;;;;7.32;1.77;;;7.30;99.90;;;;;;4954938;28;20550;-81
2023/04/26 09:43:16;;;;;;;5.45;1.83;;;9.70;99.90;;;;;;4957029;28;20110;-80
2023/04/26 09:45:49;;;;;;;6.95;1.88;;;9.60;99.90;;;;;;4960355;28;20047;-80
2023/04/26 09:48:15;;;;;;;3.08;1.45;;;7.40;99.90;;;;;;4930744;28;20061;-82
2023/04/26 09:50:45;;;;;;;5.22;1.42;;;8.70;99.90;;;;;;4960925;28;20435;-80
2023/04/26 09:53:23;;;;;;;10.75;1.88;;;7.70;99.90;;;;;;4959190;28;20432;-80
2023/04/26 09:55:49;;;;;;;9.40;1.80;;;10.30;99.90;;;;;;4940293;28;20574;-79
2023/04/26 09:58:17;;;;;;;4.70;1.52;;;;;;;;;;4953749;28;20521;-81
2023/04/26 10:00:43;;;;;;;10.18;2.53;;;;;;;;;;4926714;29;20499;-81
2023/04/26 10:03:12;;;;;;;7.95;1.45;;;7.80;99.90;;;;;;4961537;28;20066;-81
2023/04/26 10:05:38;;;;;;;5.20;1.20;;;;;;;;;;4959177;28;20039;-82
2023/04/26 10:08:06;;;;;;;12.77;2.15;;;8.00;99.90;;;;;;4967524;28;20390;-81
2023/04/26 10:10:32;;;;;;;6.38;2.15;;;9.90;99.90;;;;;;4956403;28;20628;-82
2023/04/26 10:12:59;;;;;;;9.52;1.55;;;7.90;99.90;;;;;;4959575;28;20597;-80
2023/04/26 10:15:30;;;;;;;11.98;1.75;;;8.00;99.90;;;;;;4955353;28;20483;-81
2023/04/26 10:17:56;;;;;;;8.07;1.83;;;8.10;99.90;;;;;;4945244;28;20179;-80
2023/04/26 10:20:25;;;;;;;5.85;1.30;;;9.80;99.90;;;;;;4962558;28;20558;-82
2023/04/26 10:22:53;;;;;;;7.43;1.85;;;8.40;99.90;;;;;;4962101;28;20402;-82
2023/04/26 10:25:20;;;;;;;8.82;1.20;;;8.00;99.90;;;;;;4977151;28;20047;-82
2023/04/26 10:27:47;;;;;;;7.65;1.83;;;7.90;99.90;;;;;;4945823;28;20047;-83
2023/04/26 10:30:14;;;;;;;18.73;2.35;;;7.90;99.90;;;;;;4958248;28;20068;-82
2023/04/26 10:32:51;;;;;;;7.82;1.75;;;7.90;99.90;;;;;;4960630;28;20047;-80
2023/04/26 10:35:18;;;;;;;4.38;0.82;;;7.90;99.90;;;;;;4961221;28;20059;-80
2023/04/26 10:38:02;;;;;;;5.53;1.67;;;7.80;99.90;;;;;;4927746;29;20069;-81
2023/04/26 10:40:32;;;;;;;10.75;1.63;;;6.10;99.90;;;;;;4942957;28;20076;-82
2023/04/26 10:43:13;;;;;;;9.00;1.33;;;7.90;99.90;;;;;;4978806;28;20070;-82
2023/04/26 10:45:43;;;;;;;10.38;1.60;;;8.00;99.90;;;;;;4975082;28;20058;-81
2023/04/26 10:48:17;;;;;;;8.32;1.52;;;8.10;99.90;;;;;;4967846;28;20055;-80
2023/04/26 10:51:03;;;;;;;5.30;0.90;;;10.50;99.90;;;;;;4951244;28;20557;-80
2023/04/26 10:53:48;;;;;;;4.05;1.15;;;8.00;99.90;;;;;;4941059;28;20152;-82
2023/04/26 10:56:30;;;;;;;4.97;1.42;;;7.90;99.90;;;;;;4969325;28;20054;-82
2023/04/26 10:59:12;;;;;;;4.47;0.85;;;7.80;99.90;;;;;;4926536;29;20138;-81
2023/04/26 11:01:45;;;;;;;4.43;0.90;;;10.70;99.90;;;;;;4961039;28;21005;-81
2023/04/26 11:04:13;;;;;;;8.60;1.92;;;9.30;99.90;;;;;;4928089;28;20055;-83
2023/04/26 11:06:56;;;;;;;5.55;1.20;;;7.40;99.90;;;;;;4982083;28;20392;-80
2023/04/26 11:09:49;;;;;;;12.02;1.95;;;7.20;99.90;;;;;;4978628;28;20051;-82
2023/04/26 11:12:15;;;;;;;5.78;1.00;;;7.20;99.90;;;;;;4954854;28;20618;-81
2023/04/26 11:14:42;;;;;;;6.63;1.48;;;7.20;99.90;;;;;;4977885;28;20086;-82
2023/04/26 11:17:08;;;;;;;5.63;1.30;;;7.00;99.90;;;;;;4938785;28;20050;-82
2023/04/26 11:19:35;;;;;;;7.45;1.52;;;9.30;99.90;;;;;;4975857;28;20061;-84
2023/04/26 11:22:02;;;;;;;5.78;1.42;;;9.10;99.90;;;;;;4942943;29;20127;-83
2023/04/26 11:24:32;;;;;;;17.38;2.65;;;7.10;99.90;;;;;;4945346;28;20051;-83
2023/04/26 11:26:58;;;;;;;4.95;1.25;;;7.70;99.90;;;;;;4948356;28;20105;-83
2023/04/26 11:29:25;;;;;;;3.15;1.10;;;7.50;99.90;;;;;;4950404;28;20066;-83
2023/04/26 11:31:56;;;;;;;4.18;1.30;;;9.40;99.90;;;;;;4927144;29;20075;-83
2023/04/26 11:34:32;;;;;;;6.78;1.55;;;9.50;99.90;;;;;;4959361;28;20063;-82
2023/04/26 11:36:58;;;;;;;4.28;1.27;;;7.60;99.90;;;;;;4953757;28;20101;-82
2023/04/26 11:39:24;;;;;;;6.82;0.80;;;9.80;99.90;;;;;;4960990;28;20058;-82
2023/04/26 11:41:50;;;;;;;5.20;1.48;;;10.10;99.90;;;;;;4958431;28;20047;-81
2023/04/26 11:44:22;;;;;;;4.68;0.90;;;7.40;99.90;;;;;;4959108;28;20091;-81
2023/04/26 11:46:48;;;;;;;5.55;1.10;;;7.50;99.90;;;;;;4939342;28;20039;-82
2023/04/26 11:49:15;;;;;;;3.55;0.98;;;7.80;99.90;;;;;;4961212;28;20514;-82
2023/04/26 11:51:41;;;;;;;5.70;1.55;;;7.60;99.90;;;;;;4961841;28;20057;-81
2023/04/26 11:54:07;;;;;;;6.15;0.95;;;7.80;99.90;;;;;;4962981;28;20043;-82
2023/04/26 11:56:33;;;;;;;5.00;0.90;;;9.00;99.90;;;;;;4966904;28;20055;-81
2023/04/26 11:58:58;;;;;;;5.10;1.02;;;8.50;99.90;;;;;;4936885;28;20364;-81
2023/04/26 12:01:28;;;;;;;7.93;2.40;;;9.30;99.90;;;;;;4953722;28;20043;-81
2023/04/26 12:03:58;;;;;;;4.32;1.42;;;10.50;99.90;;;;;;4929132;28;20110;-82
2023/04/26 12:06:40;;;;;;;6.63;1.77;;;8.30;99.90;;;;;;4964355;28;20089;-81
2023/04/26 12:09:08;;;;;;;2.58;0.63;;;8.20;99.90;;;;;;4959134;28;20047;-81
2023/04/26 12:11:33;;;;;;;6.53;1.70;;;9.80;99.90;;;;;;4946695;28;20403;-81
2023/04/26 12:14:00;;;;;;;3.85;1.10;;;9.10;99.90;;;;;;4951841;28;20047;-81
2023/04/26 12:16:26;;;;;;;4.22;1.38;;;8.30;99.90;;;;;;4958963;28;20425;-80
2023/04/26 12:18:53;;;;;;;4.40;1.02;;;10.50;99.90;;;;;;4937059;28;20104;-79
2023/04/26 12:21:19;;;;;;;6.25;1.52;;;9.10;99.90;;;;;;4956887;28;20141;-81
2023/04/26 12:23:46;;;;;;;3.67;1.10;;;8.00;99.90;;;;;;4950557;28;20183;-81
2023/04/26 12:26:12;;;;;;;5.15;0.88;;;9.70;99.90;;;;;;4960187;28;20568;-81
2023/04/26 12:28:38;;;;;;;2.72;0.43;;;9.30;99.90;;;;;;4954773;28;20055;-81
2023/04/26 12:31:06;;;;;;;5.35;1.10;;;7.80;99.90;;;;;;4928068;28;20066;-81
2023/04/26 12:33:33;;;;;;;7.75;1.50;;;7.80;99.90;;;;;;4943048;28;20069;-80
2023/04/26 12:36:11;;;;;;;6.15;1.65;;;7.90;99.90;;;;;;4953326;28;20500;-80
2023/04/26 12:38:38;;;;;;;3.03;1.27;;;7.90;99.90;;;;;;4921297;28;20051;-80
2023/04/26 12:41:04;;;;;;;7.05;1.30;;;10.00;99.90;;;;;;4975262;28;20051;-79
2023/04/26 12:43:30;;;;;;;6.28;1.00;;;5.60;99.90;;;;;;4944432;28;20058;-80
2023/04/26 12:45:56;;;;;;;8.55;1.52;;;9.70;99.90;;;;;;4944251;29;20047;-79
2023/04/26 12:48:22;;;;;;;8.35;1.52;;;9.80;99.90;;;;;;4945820;28;21028;-79
2023/04/26 12:50:47;;;;;;;6.55;2.33;;;9.40;99.90;;;;;;4942670;29;20585;-79
2023/04/26 12:53:13;;;;;;;9.63;2.80;;;8.40;99.90;;;;;;4959915;28;20418;-80
2023/04/26 12:55:39;;;;;;;5.22;2.10;;;7.20;99.90;;;;;;4922827;28;20099;-80
2023/04/26 12:58:04;;;;;;;8.43;2.08;;;9.30;99.90;;;;;;4944231;28;20057;-80
2023/04/26 13:00:30;;;;;;;6.45;2.22;;;7.20;99.90;;;;;;4926720;28;20053;-80